Time;durP1;ratioP1;P1;durP2;ratioP2;P2;SDS_P1;SDS_P2;PMS_P1;PMS_P2;Temp;Humidity;BMP_temperature;BMP_pressure;BME280_temperature;BME280_humidity;BME280_pressure;Samples;Min_cycle;Max_cycle;Signal;HPM_P1;HPM_P2
2023/04/05 00:02:58;;;;;;;8.43;7.63;;;;;;;;;;5035005;28;20451;-77
2023/04/05 00:12:12;;;;;;;;;;;;;;;;;;;;;
2023/04/05 00:23:50;;;;;;;8.87;8.03;;;;;;;;;;5047514;28;20791;-78
2023/04/05 00:32:45;;;;;;;8.67;7.83;;;;;;;;;;5041971;28;20430;-77
2023/04/05 00:41:51;;;;;;;;;;;;;;;;;;;;;
2023/04/05 00:44:52;;;;;;;8.83;8.03;;;;;;;;;;4984110;28;20437;-78
2023/04/05 00:50:45;;;;;;;;;;;;;;;;;;;;;
2023/04/05 00:53:41;;;;;;;8.60;7.70;;;;;;;;;;4968445;28;20509;-77
2023/04/05 00:56:30;;;;;;;8.20;7.40;;;;;;;;;;4984595;28;21053;-77
2023/04/05 00:59:27;;;;;;;;;;;;;;;;;;;;;
2023/04/05 01:05:32;;;;;;;10.17;7.97;;;;;;;;;;4989994;28;20433;-75
2023/04/05 01:08:45;;;;;;;8.17;7.43;;;;;;;;;;5002890;28;20446;-76
2023/04/05 01:26:53;;;;;;;9.33;8.13;;;;;;;;;;5004517;28;20476;-76
2023/04/05 01:30:08;;;;;;;8.97;8.17;;;;;;;;;;5002522;28;20490;-76
2023/04/05 01:33:19;;;;;;;8.40;7.17;;;;;;;;;;4986394;28;20511;-76
2023/04/05 01:36:03;;;;;;;8.73;7.83;;;;;;;;;;5032612;28;20981;-77
2023/04/05 01:38:39;;;;;;;8.53;7.83;;;;;;;;;;5063940;28;20450;-76
2023/04/05 01:41:39;;;;;;;8.13;7.50;;;;;;;;;;5065295;28;20537;-76
2023/04/05 01:44:19;;;;;;;9.43;8.10;;;;;;;;;;5064765;28;20450;-76
2023/04/05 02:05:45;;;;;;;9.50;8.23;;;;;;;;;;4951523;29;20465;-77
2023/04/05 02:45:11;;;;;;;9.10;8.20;;;;;;;;;;5062726;28;20458;-77
2023/04/05 02:54:15;;;;;;;9.47;8.60;;;;;;;;;;5059599;28;20461;-76
2023/04/05 02:57:11;;;;;;;9.83;8.50;;;;;;;;;;5066289;28;20465;-76
2023/04/05 03:00:16;;;;;;;8.83;8.03;;;;;;;;;;5066067;28;20471;-76
2023/04/05 03:09:14;;;;;;;9.70;8.80;;;;;;;;;;4940094;29;20498;-77
2023/04/05 03:12:30;;;;;;;10.37;9.37;;;;;;;;;;4974774;28;20441;-75
2023/04/05 03:52:10;;;;;;;9.23;8.40;;;;;;;;;;5978714;24;20650;-76
2023/04/05 04:23:13;;;;;;;10.17;9.00;;;;;;;;;;5857660;24;20488;-78
2023/04/05 04:26:09;;;;;;;11.00;9.80;;;;;;;;;;5919471;24;20518;-76
2023/04/05 04:37:36;;;;;;;10.00;8.57;;;;;;;;;;6176431;23;20439;-77
2023/04/05 04:43:08;;;;;;;9.60;8.70;;;;;;;;;;6165086;23;20400;-77
2023/04/05 04:46:00;;;;;;;11.40;9.73;;;;;;;;;;6163064;23;20965;-76
2023/04/05 04:48:52;;;;;;;10.50;9.37;;;;;;;;;;6162179;23;20765;-78
2023/04/05 04:51:40;;;;;;;11.10;10.00;;;;;;;;;;6162943;23;20413;-77
2023/04/05 04:54:15;;;;;;;10.83;9.73;;;;;;;;;;6160275;23;20841;-77
2023/04/05 04:56:52;;;;;;;13.50;10.13;;;;;;;;;;6162231;23;20436;-77
2023/04/05 04:59:28;;;;;;;10.53;9.57;;;;;;;;;;6159178;23;20462;-76
2023/04/05 05:02:00;;;;;;;12.83;9.57;;;;;;;;;;6157884;23;20753;-76
2023/04/05 05:04:42;;;;;;;11.63;10.50;;;;;;;;;;6157941;23;20443;-76
2023/04/05 05:07:18;;;;;;;11.70;9.67;;;;;;;;;;6158646;23;20467;-78
2023/04/05 05:15:50;;;;;;;11.03;9.93;;;;;;;;;;6157355;23;20423;-77
2023/04/05 05:18:37;;;;;;;;;;;;;;;;;;;;;
2023/04/05 05:21:14;;;;;;;11.83;10.50;;;;;;;;;;6161183;23;20400;-76
2023/04/05 05:23:45;;;;;;;11.27;10.23;;;;;;;;;;6162293;23;20910;-77
2023/04/05 05:26:29;;;;;;;15.63;10.27;;;;;;;;;;6160179;23;20973;-79
2023/04/05 05:29:02;;;;;;;11.23;9.97;;;;;;;;;;6160645;23;20416;-77
2023/04/05 05:31:32;;;;;;;16.80;14.67;;;;;;;;;;6159177;23;20495;-77
2023/04/05 05:34:00;;;;;;;17.47;11.70;;;;;;;;;;6155743;23;20444;-77
2023/04/05 05:36:29;;;;;;;13.30;11.80;;;;;;;;;;6156804;23;20442;-78
2023/04/05 05:39:04;;;;;;;16.30;13.73;;;;;;;;;;6157112;23;20423;-78
2023/04/05 05:41:38;;;;;;;15.17;13.57;;;;;;;;;;6158879;23;20763;-76
2023/04/05 05:44:24;;;;;;;19.13;14.80;;;;;;;;;;6157773;23;20496;-79
2023/04/05 05:46:56;;;;;;;20.00;14.20;;;;;;;;;;6158072;23;20463;-77
2023/04/05 05:49:44;;;;;;;14.10;12.60;;;;;;;;;;6159772;23;20515;-76
2023/04/05 05:52:29;;;;;;;23.70;18.37;;;;;;;;;;6161250;23;20412;-77
2023/04/05 05:55:06;;;;;;;18.87;16.00;;;;;;;;;;6161847;23;20407;-78
2023/04/05 05:57:38;;;;;;;31.97;25.83;;;;;;;;;;6159086;23;20519;-77
2023/04/05 06:00:10;;;;;;;16.77;13.43;;;;;;;;;;6161242;23;20766;-76
2023/04/05 06:02:48;;;;;;;19.83;11.33;;;;;;;;;;6159941;23;20491;-77
2023/04/05 06:05:30;;;;;;;13.00;11.27;;;;;;;;;;6160113;23;20432;-77
2023/04/05 06:08:06;;;;;;;16.30;11.00;;;;;;;;;;6158504;23;20411;-76
2023/04/05 06:10:51;;;;;;;11.90;10.63;;;;;;;;;;6158603;23;20411;-76
2023/04/05 06:13:22;;;;;;;13.10;10.87;;;;;;;;;;6155847;23;20743;-76
2023/04/05 06:15:53;;;;;;;12.57;11.27;;;;;;;;;;6158715;23;20442;-77
2023/04/05 06:18:26;;;;;;;12.93;11.43;;;;;;;;;;6160675;23;20393;-76
2023/04/05 06:20:58;;;;;;;15.80;10.70;;;;;;;;;;6159505;23;20412;-76
2023/04/05 06:23:32;;;;;;;11.03;10.07;;;;;;;;;;6159403;23;20479;-76
2023/04/05 06:26:10;;;;;;;12.77;11.47;;;;;;;;;;6157872;23;20828;-76
2023/04/05 06:28:52;;;;;;;13.10;11.30;;;;;;;;;;6158208;23;20415;-77
2023/04/05 06:31:21;;;;;;;12.20;10.57;;;;;;;;;;6158986;23;20411;-78
2023/04/05 06:34:02;;;;;;;13.63;12.30;;;;;;;;;;6158384;23;20412;-76
2023/04/05 06:36:32;;;;;;;12.67;11.37;;;;;;;;;;6157850;23;20486;-77
2023/04/05 06:39:06;;;;;;;11.30;10.10;;;;;;;;;;6157999;23;20416;-76
2023/04/05 06:41:36;;;;;;;12.33;11.17;;;;;;;;;;6157642;23;20412;-77
2023/04/05 06:44:09;;;;;;;11.97;10.77;;;;;;;;;;6157360;23;20422;-77
2023/04/05 06:46:43;;;;;;;17.00;11.07;;;;;;;;;;6157657;23;20447;-76
2023/04/05 06:49:16;;;;;;;15.70;12.83;;;;;;;;;;6158503;23;20419;-77
2023/04/05 06:51:51;;;;;;;14.83;12.90;;;;;;;;;;6157676;23;20412;-78
2023/04/05 06:54:25;;;;;;;13.07;11.77;;;;;;;;;;6158838;23;20411;-77
2023/04/05 06:56:58;;;;;;;15.00;12.20;;;;;;;;;;6159046;23;20431;-77
2023/04/05 06:59:35;;;;;;;12.90;11.60;;;;;;;;;;6158456;23;20902;-76
2023/04/05 07:02:03;;;;;;;13.10;11.37;;;;;;;;;;6159301;23;20372;-78
2023/04/05 07:04:36;;;;;;;16.53;12.90;;;;;;;;;;6158539;23;20936;-76
2023/04/05 07:07:10;;;;;;;15.63;11.67;;;;;;;;;;6158786;23;20448;-78
2023/04/05 07:09:52;;;;;;;13.10;11.80;;;;;;;;;;6157606;23;20411;-76
2023/04/05 07:12:21;;;;;;;12.80;11.40;;;;;;;;;;6157927;23;20467;-77
2023/04/05 07:14:49;;;;;;;12.73;11.50;;;;;;;;;;6158260;23;20486;-78
2023/04/05 07:17:24;;;;;;;13.80;11.37;;;;;;;;;;6157774;23;20400;-79
2023/04/05 07:19:52;;;;;;;13.57;11.27;;;;;;;;;;6158233;23;20408;-76
2023/04/05 07:22:21;;;;;;;15.10;11.70;;;;;;;;;;6157115;23;20420;-78
2023/04/05 07:24:56;;;;;;;13.13;11.30;;;;;;;;;;6157512;23;20404;-76
2023/04/05 07:27:38;;;;;;;15.00;11.53;;;;;;;;;;6156849;23;20446;-77
2023/04/05 07:30:22;;;;;;;13.93;11.00;;;;;;;;;;6157280;23;20416;-76
2023/04/05 07:32:51;;;;;;;12.90;11.53;;;;;;;;;;6155961;23;20427;-77
2023/04/05 07:35:28;;;;;;;16.63;11.93;;;;;;;;;;6155993;23;20416;-77
2023/04/05 07:37:55;;;;;;;12.00;10.80;;;;;;;;;;6155691;23;20439;-76
2023/04/05 07:40:38;;;;;;;15.13;10.90;;;;;;;;;;6154907;23;20503;-78
2023/04/05 07:45:52;;;;;;;13.53;11.07;;;;;;;;;;6149595;23;20432;-77
2023/04/05 07:48:19;;;;;;;12.30;11.30;;;;;;;;;;6154078;23;20543;-77
2023/04/05 07:51:07;;;;;;;12.13;10.93;;;;;;;;;;6154407;23;20863;-77
2023/04/05 07:53:38;;;;;;;14.10;11.93;;;;;;;;;;6154066;23;20802;-77
2023/04/05 07:59:10;;;;;;;13.37;12.03;;;;;;;;;;6154908;23;20486;-76
2023/04/05 08:01:58;;;;;;;17.13;12.10;;;;;;;;;;6155460;23;20993;-76
2023/04/05 08:05:01;;;;;;;14.60;11.37;;;;;;;;;;6156122;23;20786;-76
2023/04/05 08:07:54;;;;;;;12.50;11.20;;;;;;;;;;6155849;23;20440;-77
2023/04/05 08:10:25;;;;;;;17.03;12.17;;;;;;;;;;6158930;23;20579;-78
2023/04/05 08:13:19;;;;;;;13.30;11.83;;;;;;;;;;6163514;23;20442;-77
2023/04/05 08:16:33;;;;;;;;;;;;;;;;;;;;;
2023/04/05 08:28:22;;;;;;;12.50;11.20;;;;;;;;;;6136127;23;20510;-77
2023/04/05 08:33:59;;;;;;;12.63;11.43;;;;;;;;;;6129283;23;20510;-77
2023/04/05 08:49:29;;;;;;;10.70;9.70;;;;;;;;;;5778697;24;20420;-76
2023/04/05 08:52:04;;;;;;;13.67;10.20;;;;;;;;;;5990654;23;20440;-77
2023/04/05 08:57:44;;;;;;;11.10;10.07;;;;;;;;;;6113318;23;20381;-77
2023/04/05 09:03:27;;;;;;;9.23;8.33;;;;;;;;;;6167905;23;20440;-76
2023/04/05 09:12:04;;;;;;;9.50;8.60;;;;;;;;;;6172205;23;20392;-76
2023/04/05 09:17:21;;;;;;;7.63;7.07;;;;;;;;;;6078774;23;20466;-77
2023/04/05 09:19:58;;;;;;;8.63;7.93;;;;;;;;;;6167626;23;20435;-76
2023/04/05 09:22:44;;;;;;;8.40;7.53;;;;;;;;;;6165854;23;20475;-77
2023/04/05 09:28:53;;;;;;;8.60;7.23;;;;;;;;;;6142057;23;20447;-77
2023/04/05 09:31:53;;;;;;;9.43;8.60;;;;;;;;;;6166439;23;20415;-77
2023/04/05 09:37:36;;;;;;;7.80;7.20;;;;;;;;;;6158689;23;20408;-77
2023/04/05 09:40:13;;;;;;;7.27;6.57;;;;;;;;;;6164091;23;20407;-77
2023/04/05 09:42:59;;;;;;;7.17;6.57;;;;;;;;;;6164549;23;20407;-76
2023/04/05 09:45:45;;;;;;;7.13;6.63;;;;;;;;;;6162955;23;20432;-77
2023/04/05 09:48:13;;;;;;;6.90;6.30;;;;;;;;;;6165454;23;20452;-75
2023/04/05 09:53:39;;;;;;;5.77;5.37;;;;;;;;;;6146869;23;20412;-76
2023/04/05 09:56:28;;;;;;;6.47;5.97;;;;;;;;;;6163911;23;20442;-77
2023/04/05 09:59:13;;;;;;;6.30;5.80;;;;;;;;;;6162929;23;20428;-77
2023/04/05 10:01:56;;;;;;;5.17;4.87;;;;;;;;;;6164974;23;20418;-76
2023/04/05 10:04:56;;;;;;;6.10;5.60;;;;;;;;;;6165173;23;21230;-76
2023/04/05 10:10:34;;;;;;;6.87;6.27;;;;;;;;;;6156267;23;20431;-76
2023/04/05 10:19:08;;;;;;;6.80;6.30;;;;;;;;;;6158609;23;20412;-77
2023/04/05 10:22:06;;;;;;;7.40;6.70;;;;;;;;;;6159275;23;20416;-76
2023/04/05 10:25:01;;;;;;;7.10;6.60;;;;;;;;;;6160062;23;20408;-77
2023/04/05 10:27:51;;;;;;;6.90;6.40;;;;;;;;;;6158339;23;20444;-76
2023/04/05 10:30:20;;;;;;;8.03;7.43;;;;;;;;;;6160051;23;20407;-77
2023/04/05 10:33:11;;;;;;;6.97;6.33;;;;;;;;;;6154451;23;20758;-76
2023/04/05 10:35:55;;;;;;;7.07;6.20;;;;;;;;;;6156189;23;20436;-78
2023/04/05 10:38:43;;;;;;;6.77;6.20;;;;;;;;;;6157045;23;20411;-78
2023/04/05 10:47:05;;;;;;;6.97;6.47;;;;;;;;;;6148078;23;20579;-78
2023/04/05 10:56:20;;;;;;;7.23;6.63;;;;;;;;;;5944483;24;20427;-76
2023/04/05 10:59:08;;;;;;;7.53;6.93;;;;;;;;;;6124331;23;20415;-77
2023/04/05 11:01:39;;;;;;;7.43;6.83;;;;;;;;;;6154777;23;20412;-77
2023/04/05 11:13:11;;;;;;;7.33;6.73;;;;;;;;;;6044197;23;20388;-76
2023/04/05 11:18:28;;;;;;;7.23;6.73;;;;;;;;;;6153503;23;20392;-77
2023/04/05 11:21:27;;;;;;;7.20;6.60;;;;;;;;;;6155273;23;20799;-76
2023/04/05 11:24:02;;;;;;;7.40;6.70;;;;;;;;;;6153482;23;20976;-78
2023/04/05 11:26:48;;;;;;;6.80;5.60;;;;;;;;;;6153904;23;20860;-76
2023/04/05 11:29:25;;;;;;;6.50;6.00;;;;;;;;;;6135444;23;20467;-78
2023/04/05 11:31:59;;;;;;;6.33;5.83;;;;;;;;;;6155216;23;20772;-77
2023/04/05 11:37:48;;;;;;;6.40;5.87;;;;;;;;;;6110945;23;20408;-80
2023/04/05 11:43:33;;;;;;;52.43;36.57;;;;;;;;;;6089686;23;20497;-77
2023/04/05 11:46:07;;;;;;;37.90;29.63;;;;;;;;;;6147593;23;20432;-77
2023/04/05 11:48:56;;;;;;;6.97;6.47;;;;;;;;;;6155360;23;20910;-77
2023/04/05 11:54:38;;;;;;;6.40;5.90;;;;;;;;;;6153882;23;20399;-77
2023/04/05 11:57:15;;;;;;;6.93;6.40;;;;;;;;;;6157776;23;20503;-77
2023/04/05 11:59:58;;;;;;;7.23;6.63;;;;;;;;;;6158905;23;20456;-77
2023/04/05 12:02:29;;;;;;;7.43;6.70;;;;;;;;;;6158064;23;20447;-76
2023/04/05 12:05:05;;;;;;;6.70;6.10;;;;;;;;;;6157363;23;20412;-76
2023/04/05 12:08:06;;;;;;;6.23;5.70;;;;;;;;;;6159421;23;20820;-76
2023/04/05 12:10:42;;;;;;;6.10;5.63;;;;;;;;;;6160781;23;20446;-78
2023/04/05 12:13:35;;;;;;;6.33;5.93;;;;;;;;;;6160112;23;20824;-76
2023/04/05 12:16:24;;;;;;;6.50;5.90;;;;;;;;;;6162936;23;20511;-78
2023/04/05 12:21:57;;;;;;;6.13;5.63;;;;;;;;;;6151974;23;20507;-77
2023/04/05 12:24:26;;;;;;;7.03;6.50;;;;;;;;;;6163096;23;20373;-79
2023/04/05 12:30:03;;;;;;;7.80;6.67;;;;;;;;;;6154210;23;20400;-76
2023/04/05 12:32:41;;;;;;;6.60;6.17;;;;;;;;;;6166148;23;20427;-79
2023/04/05 12:35:31;;;;;;;6.50;6.00;;;;;;;;;;6170196;23;20474;-79
2023/04/05 12:38:16;;;;;;;6.10;5.50;;;;;;;;;;6174219;23;20385;-77
2023/04/05 12:44:08;;;;;;;6.70;6.10;;;;;;;;;;6161125;23;20416;-79
2023/04/05 12:47:14;;;;;;;6.17;5.67;;;;;;;;;;6167345;23;20436;-78
2023/04/05 12:49:57;;;;;;;5.63;5.23;;;;;;;;;;6168235;23;20446;-78
2023/04/05 12:55:41;;;;;;;8.50;6.80;;;;;;;;;;6160117;23;20918;-77
2023/04/05 12:58:44;;;;;;;6.13;5.63;;;;;;;;;;6174862;23;20419;-76
2023/04/05 13:04:51;;;;;;;7.80;7.20;;;;;;;;;;6170885;23;20439;-78
2023/04/05 13:10:32;;;;;;;5.60;5.10;;;;;;;;;;6171114;23;20389;-77
2023/04/05 13:13:16;;;;;;;6.77;6.07;;;;;;;;;;6147008;23;20507;-77
2023/04/05 13:19:05;;;;;;;6.23;5.73;;;;;;;;;;6101647;23;20407;-76
2023/04/05 13:21:39;;;;;;;6.07;5.50;;;;;;;;;;6137644;23;20408;-76
2023/04/05 13:24:24;;;;;;;5.73;5.33;;;;;;;;;;6167362;23;20770;-76
2023/04/05 13:27:04;;;;;;;5.93;5.43;;;;;;;;;;6168898;23;20447;-76
2023/04/05 13:30:10;;;;;;;6.83;6.23;;;;;;;;;;6167014;23;20449;-77
2023/04/05 13:32:39;;;;;;;6.90;6.40;;;;;;;;;;6166136;23;20899;-77
2023/04/05 13:35:10;;;;;;;6.77;6.23;;;;;;;;;;6165098;23;20419;-75
2023/04/05 13:37:38;;;;;;;7.37;6.77;;;;;;;;;;6167752;23;20488;-78
2023/04/05 13:40:15;;;;;;;7.07;6.57;;;;;;;;;;6166283;23;20416;-76
2023/04/05 13:42:45;;;;;;;6.70;6.20;;;;;;;;;;6165864;23;20741;-78
2023/04/05 13:45:17;;;;;;;6.70;6.10;;;;;;;;;;6161933;23;20439;-76
2023/04/05 13:47:49;;;;;;;6.93;6.27;;;;;;;;;;6161591;23;20734;-78
2023/04/05 13:50:29;;;;;;;6.37;5.97;;;;;;;;;;6161225;23;20760;-77
2023/04/05 13:53:18;;;;;;;7.60;5.97;;;;;;;;;;6163572;23;20442;-77
2023/04/05 13:55:56;;;;;;;6.60;6.10;;;;;;;;;;6165132;23;20443;-77
2023/04/05 13:58:36;;;;;;;;;;;;;;;;;;;;;
2023/04/05 14:01:08;;;;;;;7.07;6.50;;;;;;;;;;6159745;23;20507;-77
2023/04/05 14:03:41;;;;;;;6.07;5.67;;;;;;;;;;6159790;23;20375;-77
2023/04/05 14:06:11;;;;;;;6.87;6.27;;;;;;;;;;6158714;23;20447;-79
2023/04/05 14:09:00;;;;;;;6.90;6.40;;;;;;;;;;6157680;23;20435;-78
2023/04/05 14:11:51;;;;;;;8.73;7.97;;;;;;;;;;6157526;23;20389;-76
2023/04/05 14:14:21;;;;;;;7.27;6.73;;;;;;;;;;6156209;23;20470;-77
2023/04/05 14:16:51;;;;;;;6.40;5.80;;;;;;;;;;6155447;23;20424;-76
2023/04/05 14:19:26;;;;;;;7.30;6.60;;;;;;;;;;6157881;23;20867;-77
2023/04/05 14:22:04;;;;;;;7.67;7.07;;;;;;;;;;6155458;23;21216;-77
2023/04/05 14:24:44;;;;;;;6.73;6.23;;;;;;;;;;6155204;23;20412;-77
2023/04/05 14:27:21;;;;;;;6.97;6.47;;;;;;;;;;6155753;23;20439;-76
2023/04/05 14:29:59;;;;;;;6.40;6.00;;;;;;;;;;6156239;23;20447;-77
2023/04/05 14:32:44;;;;;;;6.80;6.10;;;;;;;;;;6156526;23;20392;-78
2023/04/05 14:35:22;;;;;;;6.77;6.07;;;;;;;;;;6155424;23;21896;-76
2023/04/05 14:37:49;;;;;;;8.93;8.17;;;;;;;;;;6155015;23;20423;-77
2023/04/05 14:40:20;;;;;;;6.73;6.13;;;;;;;;;;6155797;23;20881;-76
2023/04/05 14:46:15;;;;;;;6.70;6.20;;;;;;;;;;6066581;23;20411;-77
2023/04/05 14:55:06;;;;;;;7.77;7.17;;;;;;;;;;5981571;24;20398;-75
2023/04/05 14:57:44;;;;;;;7.57;6.97;;;;;;;;;;6028927;23;20497;-78
2023/04/05 15:00:30;;;;;;;6.90;6.30;;;;;;;;;;6125964;23;20412;-76
2023/04/05 15:03:25;;;;;;;7.23;6.67;;;;;;;;;;6159203;23;20462;-77
2023/04/05 15:18:26;;;;;;;5.70;5.30;;;;;;;;;;6002846;23;20404;-77
2023/04/05 15:21:08;;;;;;;7.07;6.47;;;;;;;;;;6111513;23;20427;-77
2023/04/05 15:23:52;;;;;;;6.53;6.00;;;;;;;;;;6163059;23;20416;-77
2023/04/05 15:34:52;;;;;;;6.57;6.07;;;;;;;;;;6167042;23;20419;-77
2023/04/05 15:37:44;;;;;;;6.83;6.40;;;;;;;;;;6167331;23;20427;-77
2023/04/05 15:40:31;;;;;;;5.73;5.33;;;;;;;;;;6166925;23;20412;-77
2023/04/05 15:43:41;;;;;;;6.57;6.00;;;;;;;;;;6164572;23;20412;-76
2023/04/05 15:46:22;;;;;;;6.67;6.10;;;;;;;;;;6163219;23;20436;-77
2023/04/05 15:49:06;;;;;;;5.53;5.13;;;;;;;;;;6163168;23;20454;-77
2023/04/05 15:51:55;;;;;;;6.43;5.80;;;;;;;;;;6162363;23;20412;-77
2023/04/05 15:55:09;;;;;;;7.13;6.43;;;;;;;;;;6161137;23;20796;-77
2023/04/05 15:58:06;;;;;;;5.50;5.10;;;;;;;;;;6153766;23;20416;-77
2023/04/05 16:01:09;;;;;;;;;;;;;;;;;;;;;
2023/04/05 16:04:21;;;;;;;5.37;5.03;;;;;;;;;;6160996;23;20410;-77
2023/04/05 16:12:40;;;;;;;5.43;5.13;;;;;;;;;;6159672;23;20394;-77
2023/04/05 16:15:24;;;;;;;7.00;6.10;;;;;;;;;;6159779;23;20408;-76
2023/04/05 16:18:13;;;;;;;5.80;5.40;;;;;;;;;;6158861;23;20414;-77
2023/04/05 16:20:59;;;;;;;6.23;5.83;;;;;;;;;;6159633;23;20450;-77
2023/04/05 16:32:29;;;;;;;6.40;6.00;;;;;;;;;;6128896;23;20442;-76
2023/04/05 17:24:10;;;;;;;9.03;7.17;;;;;;;;;;6158143;23;20446;-79
2023/04/05 17:26:40;;;;;;;8.00;7.10;;;;;;;;;;6185642;23;20434;-79
2023/04/05 17:29:12;;;;;;;7.97;7.20;;;;;;;;;;6186963;23;20431;-79
2023/04/05 17:31:43;;;;;;;9.60;7.20;;;;;;;;;;6186923;23;20372;-79
2023/04/05 17:34:15;;;;;;;7.97;7.17;;;;;;;;;;6186798;23;20419;-79
2023/04/05 17:36:45;;;;;;;8.20;7.50;;;;;;;;;;6186480;23;21009;-79
2023/04/05 17:39:23;;;;;;;7.57;6.87;;;;;;;;;;6184664;23;20498;-77
2023/04/05 17:44:48;;;;;;;7.43;6.73;;;;;;;;;;6185389;23;20404;-77
2023/04/05 17:47:16;;;;;;;7.37;6.77;;;;;;;;;;6184089;23;20549;-77
2023/04/05 17:49:45;;;;;;;7.03;6.33;;;;;;;;;;6183925;23;20821;-77
2023/04/05 17:52:12;;;;;;;8.13;7.43;;;;;;;;;;6184076;23;20477;-77
2023/04/05 17:54:42;;;;;;;8.50;7.70;;;;;;;;;;6183650;23;20438;-78
2023/04/05 17:57:13;;;;;;;9.10;7.70;;;;;;;;;;6184899;23;20435;-78
2023/04/05 17:59:44;;;;;;;8.03;7.43;;;;;;;;;;6186266;23;20441;-78
2023/04/05 18:02:12;;;;;;;8.13;7.43;;;;;;;;;;6185945;23;20487;-77
2023/04/05 18:04:39;;;;;;;8.37;7.70;;;;;;;;;;6184748;23;20419;-77
2023/04/05 18:07:19;;;;;;;7.63;7.00;;;;;;;;;;6185510;23;20458;-78
2023/04/05 18:09:54;;;;;;;7.47;6.73;;;;;;;;;;6187557;23;20445;-77
2023/04/05 18:12:25;;;;;;;9.33;7.77;;;;;;;;;;6185131;23;20797;-76
2023/04/05 18:14:55;;;;;;;7.87;7.13;;;;;;;;;;6186216;23;20368;-79
2023/04/05 18:17:24;;;;;;;8.10;7.50;;;;;;;;;;6185905;23;20413;-77
2023/04/05 18:19:52;;;;;;;9.43;8.53;;;;;;;;;;6184603;23;20403;-77
2023/04/05 18:22:21;;;;;;;10.17;8.53;;;;;;;;;;6183882;23;20442;-77
2023/04/05 18:24:50;;;;;;;9.37;8.47;;;;;;;;;;6185708;23;20422;-77
2023/04/05 18:27:21;;;;;;;10.30;9.40;;;;;;;;;;6185628;23;20423;-78
2023/04/05 18:29:48;;;;;;;9.00;8.20;;;;;;;;;;6186385;23;20486;-76
2023/04/05 18:32:16;;;;;;;8.70;8.00;;;;;;;;;;6186667;23;20483;-78
2023/04/05 18:34:43;;;;;;;10.03;9.23;;;;;;;;;;6186094;23;20408;-78
2023/04/05 18:37:11;;;;;;;9.60;8.20;;;;;;;;;;6186441;23;20494;-77
2023/04/05 18:39:38;;;;;;;9.07;7.90;;;;;;;;;;6186247;23;20878;-77
2023/04/05 18:42:08;;;;;;;9.10;8.20;;;;;;;;;;6186681;23;20439;-77
2023/04/05 18:48:09;;;;;;;9.03;8.20;;;;;;;;;;6127123;23;20411;-78
2023/04/05 18:50:41;;;;;;;10.30;9.40;;;;;;;;;;6188649;23;20434;-77
2023/04/05 18:53:08;;;;;;;9.17;8.47;;;;;;;;;;6187158;23;20422;-76
2023/04/05 18:55:36;;;;;;;8.70;7.90;;;;;;;;;;6187178;23;20454;-76
2023/04/05 18:58:05;;;;;;;9.60;8.70;;;;;;;;;;6187457;23;20411;-79
2023/04/05 19:00:41;;;;;;;12.00;8.77;;;;;;;;;;6192156;23;20439;-77
2023/04/05 19:03:09;;;;;;;9.10;8.37;;;;;;;;;;6190515;23;20387;-78
2023/04/05 19:05:36;;;;;;;9.67;8.77;;;;;;;;;;6197427;23;20553;-78
2023/04/05 19:08:08;;;;;;;9.30;8.50;;;;;;;;;;6199058;23;20414;-79
2023/04/05 19:10:35;;;;;;;9.63;8.73;;;;;;;;;;6195681;23;20438;-76
2023/04/05 19:13:04;;;;;;;10.10;9.20;;;;;;;;;;6197650;23;20802;-78
2023/04/05 19:15:31;;;;;;;9.53;8.50;;;;;;;;;;6196998;23;20545;-76
2023/04/05 19:17:59;;;;;;;9.73;8.87;;;;;;;;;;6190299;23;20511;-78
2023/04/05 19:20:27;;;;;;;9.97;9.07;;;;;;;;;;6188232;23;20438;-77
2023/04/05 19:22:55;;;;;;;10.33;9.20;;;;;;;;;;6187522;23;20422;-77
2023/04/05 19:25:22;;;;;;;10.30;8.63;;;;;;;;;;6186075;23;20447;-79
2023/04/05 19:27:49;;;;;;;10.30;9.37;;;;;;;;;;6189159;23;20415;-77
2023/04/05 19:30:23;;;;;;;11.97;9.27;;;;;;;;;;6190869;23;20442;-77
2023/04/05 19:33:04;;;;;;;10.17;9.27;;;;;;;;;;6190403;23;20489;-76
2023/04/05 19:35:47;;;;;;;10.80;9.70;;;;;;;;;;6191799;23;20435;-78
2023/04/05 19:38:14;;;;;;;11.43;9.97;;;;;;;;;;6192222;23;20486;-78
2023/04/05 19:40:51;;;;;;;11.10;10.10;;;;;;;;;;6192514;23;20686;-77
2023/04/05 19:43:22;;;;;;;9.97;8.97;;;;;;;;;;6160566;23;20913;-76
2023/04/05 19:49:00;;;;;;;;;;;;;;;;;;;;;
2023/04/05 19:51:48;;;;;;;10.30;9.23;;;;;;;;;;6160714;23;20440;-75
2023/04/05 19:57:42;;;;;;;11.53;10.43;;;;;;;;;;6136199;23;20417;-77
2023/04/05 20:00:39;;;;;;;11.30;10.20;;;;;;;;;;6159993;23;20460;-78
2023/04/05 20:03:28;;;;;;;10.80;9.80;;;;;;;;;;6158720;23;20416;-78
2023/04/05 20:06:06;;;;;;;11.80;10.63;;;;;;;;;;6159218;23;20928;-77
2023/04/05 20:08:40;;;;;;;11.87;10.07;;;;;;;;;;6160012;23;20732;-76
2023/04/05 20:11:12;;;;;;;11.10;10.00;;;;;;;;;;6160556;23;20431;-77
2023/04/05 20:13:59;;;;;;;10.70;9.70;;;;;;;;;;6164864;23;20444;-75
2023/04/05 20:16:28;;;;;;;10.60;9.60;;;;;;;;;;6168543;23;20566;-77
2023/04/05 20:19:00;;;;;;;11.50;9.47;;;;;;;;;;6158648;23;20428;-78
2023/04/05 20:21:40;;;;;;;14.60;10.03;;;;;;;;;;6157186;23;20797;-76
2023/04/05 20:24:12;;;;;;;11.87;9.90;;;;;;;;;;6156037;23;20412;-78
2023/04/05 20:26:42;;;;;;;11.70;10.50;;;;;;;;;;6155693;23;20450;-76
2023/04/05 20:29:18;;;;;;;11.97;10.77;;;;;;;;;;6156855;23;20466;-78
2023/04/05 20:31:54;;;;;;;10.93;9.77;;;;;;;;;;6158983;23;20443;-78
2023/04/05 20:34:27;;;;;;;10.00;9.10;;;;;;;;;;6157070;23;20415;-78
2023/04/05 20:37:04;;;;;;;10.93;9.93;;;;;;;;;;6166754;23;20476;-78
2023/04/05 20:39:41;;;;;;;8.67;7.87;;;;;;;;;;6164477;23;20415;-78
2023/04/05 20:42:16;;;;;;;186.60;113.37;;;;;;;;;;6167812;23;20492;-77
2023/04/05 20:44:45;;;;;;;185.47;127.17;;;;;;;;;;6166791;23;20408;-78
2023/04/05 20:50:07;;;;;;;10.80;9.80;;;;;;;;;;6118752;23;21075;-76
2023/04/05 20:52:44;;;;;;;10.40;9.40;;;;;;;;;;6175248;23;20796;-76
2023/04/05 20:55:28;;;;;;;10.63;9.77;;;;;;;;;;6176464;23;20403;-77
2023/04/05 20:58:22;;;;;;;10.23;9.27;;;;;;;;;;6178477;23;20411;-76
2023/04/05 21:01:09;;;;;;;10.67;9.57;;;;;;;;;;6178692;23;20431;-76
2023/04/05 21:06:43;;;;;;;12.43;9.63;;;;;;;;;;6177171;23;20447;-76
2023/04/05 21:12:05;;;;;;;13.70;11.73;;;;;;;;;;6169960;23;20980;-77
2023/04/05 21:14:35;;;;;;;12.60;10.70;;;;;;;;;;6174001;23;20404;-76
2023/04/05 21:17:05;;;;;;;11.70;10.50;;;;;;;;;;6171951;23;20424;-77
2023/04/05 21:19:50;;;;;;;12.20;10.80;;;;;;;;;;6170379;23;20476;-76
2023/04/05 21:22:24;;;;;;;11.93;10.70;;;;;;;;;;6167794;23;20419;-76
2023/04/05 21:24:54;;;;;;;12.00;10.60;;;;;;;;;;6170404;23;20980;-77
2023/04/05 21:27:28;;;;;;;11.73;10.53;;;;;;;;;;6168901;23;20735;-79
2023/04/05 21:30:06;;;;;;;13.60;12.07;;;;;;;;;;6165990;23;20419;-77
2023/04/05 21:32:41;;;;;;;12.00;10.80;;;;;;;;;;6165852;23;20413;-77
2023/04/05 21:35:21;;;;;;;13.50;11.30;;;;;;;;;;6167954;23;20423;-78
2023/04/05 21:38:13;;;;;;;11.67;10.47;;;;;;;;;;6171619;23;20415;-77
2023/04/05 21:40:56;;;;;;;12.30;11.00;;;;;;;;;;6172225;23;20482;-77
2023/04/05 21:43:44;;;;;;;10.80;9.80;;;;;;;;;;6178597;23;20439;-76
2023/04/05 21:51:55;;;;;;;11.53;10.43;;;;;;;;;;6161502;23;20450;-75
2023/04/05 21:54:32;;;;;;;12.30;11.10;;;;;;;;;;6175468;23;20459;-77
2023/04/05 21:57:24;;;;;;;13.17;11.20;;;;;;;;;;6174753;23;20901;-77
2023/04/05 22:00:04;;;;;;;10.50;9.43;;;;;;;;;;6173509;23;20466;-76
2023/04/05 22:02:45;;;;;;;9.87;9.03;;;;;;;;;;6171994;23;20416;-77
2023/04/05 22:05:21;;;;;;;10.80;9.70;;;;;;;;;;6173588;23;20890;-75
2023/04/05 22:08:03;;;;;;;12.30;9.60;;;;;;;;;;6174336;23;20416;-77
2023/04/05 22:10:52;;;;;;;11.30;10.23;;;;;;;;;;6175246;23;20448;-76
2023/04/05 22:13:31;;;;;;;13.83;9.20;;;;;;;;;;6177599;23;20468;-77
2023/04/05 22:16:04;;;;;;;12.43;9.90;;;;;;;;;;6177522;23;20507;-76
2023/04/05 22:18:46;;;;;;;9.40;8.40;;;;;;;;;;6177243;23;20423;-76
2023/04/05 22:21:24;;;;;;;11.50;10.30;;;;;;;;;;6177784;23;20407;-77
2023/04/05 22:24:19;;;;;;;11.53;10.37;;;;;;;;;;6177769;23;20404;-76
2023/04/05 22:26:57;;;;;;;11.00;9.17;;;;;;;;;;6146830;23;20501;-76
2023/04/05 22:29:32;;;;;;;11.70;9.87;;;;;;;;;;6147449;23;20392;-76
2023/04/05 22:32:14;;;;;;;13.53;9.73;;;;;;;;;;6146439;23;20454;-77
2023/04/05 22:34:43;;;;;;;11.40;10.30;;;;;;;;;;6146545;23;20413;-75
2023/04/05 22:37:34;;;;;;;;;;;;;;;;;;;;;
2023/04/05 22:40:09;;;;;;;11.70;9.43;;;;;;;;;;6145074;23;20393;-76
2023/04/05 22:42:50;;;;;;;11.50;8.60;;;;;;;;;;6143233;23;21018;-77
2023/04/05 22:45:38;;;;;;;12.27;10.83;;;;;;;;;;6144134;23;20452;-77
2023/04/05 22:48:24;;;;;;;;;;;;;;;;;;;;;
2023/04/05 22:51:21;;;;;;;10.60;9.17;;;;;;;;;;6144997;23;20428;-76
2023/04/05 22:53:55;;;;;;;10.67;9.77;;;;;;;;;;6144155;23;20440;-76
2023/04/05 23:00:09;;;;;;;10.77;9.67;;;;;;;;;;6105641;23;20432;-75
2023/04/05 23:03:14;;;;;;;10.90;9.87;;;;;;;;;;6144687;23;20448;-77
2023/04/05 23:08:59;;;;;;;10.50;9.50;;;;;;;;;;6083309;23;20425;-77
2023/04/05 23:11:41;;;;;;;9.80;8.90;;;;;;;;;;6132634;23;20449;-76
2023/04/05 23:16:58;;;;;;;10.53;9.53;;;;;;;;;;6061257;23;20429;-77
2023/04/05 23:19:26;;;;;;;12.30;10.00;;;;;;;;;;6128505;23;20420;-77
2023/04/05 23:22:09;;;;;;;11.60;10.20;;;;;;;;;;6128308;23;20415;-76
2023/04/05 23:24:37;;;;;;;12.37;9.97;;;;;;;;;;6135345;23;20471;-76
2023/04/05 23:27:11;;;;;;;11.00;8.93;;;;;;;;;;6159294;23;20893;-76